WetterOnline ( https://www.wetteronline.at )

Wetter aktuell Brocken

Aktuelles Wetter: Brocken (1141m)

6-stündlich | Neueste Meldungen
Ortszeit Temperatur Wetter
So, 21.07. 20:00 16.4° C bewölkt
So, 21.07. 14:00 21.4° C bedeckt
So, 21.07. 8:00 19.3° C fast wolkenlos
So, 21.07. 2:00 17.7° C wolkenlos
Sa, 20.07. 20:00 19.8° C wolkenlos
Sa, 20.07. 14:00 20.6° C wolkig
Sa, 20.07. 8:00 16.0° C wolkig
Sa, 20.07. 2:00 15.8° C leicht bewölkt
Ortszeit Temperatur Wetter
So, 21.07. 22:00 15.6° C bewölkt
So, 21.07. 21:50 15.6° C leichter Regen
So, 21.07. 21:40 15.7° C bedeckt
So, 21.07. 21:30 15.9° C bedeckt
So, 21.07. 21:20 15.9° C bedeckt
So, 21.07. 21:10 15.9° C bedeckt
So, 21.07. 21:00 16.1° C bedeckt
So, 21.07. 20:30 16.4° C bedeckt
So, 21.07. 20:00 16.4° C bewölkt
So, 21.07. 19:30 17.0° C wolkig
So, 21.07. 19:00 17.7° C bewölkt
Ortszeit Relative Feuchte Sichtweite
So, 21.07. 20:00 79% >70 km
So, 21.07. 14:00 63% 30 km
So, 21.07. 8:00 62% 45 km
So, 21.07. 2:00 67% 50 km
Sa, 20.07. 20:00 57% 45 km
Sa, 20.07. 14:00 56% 65 km
Sa, 20.07. 8:00 66% 60 km
Sa, 20.07. 2:00 61% 65 km
Ortszeit Relative Feuchte Sichtweite
So, 21.07. 22:00 85% 55 km
So, 21.07. 21:50 85% -
So, 21.07. 21:40 87% -
So, 21.07. 21:30 85% 60 km
So, 21.07. 21:20 85% -
So, 21.07. 21:10 84% -
So, 21.07. 21:00 83% 55 km
So, 21.07. 20:30 81% 45 km
So, 21.07. 20:00 79% >70 km
So, 21.07. 19:30 73% 65 km
So, 21.07. 19:00 66% >70 km
Ortszeit Niederschlagsmenge Niederschlagsart
So, 21.07. 20:00 1 l/m2 in 12 Std. Regen
So, 21.07. 14:00 0.0 l/m2 in 6 Std. -
So, 21.07. 8:00 0.0 l/m2 in 12 Std. -
So, 21.07. 2:00 0.0 l/m2 in 6 Std. -
Sa, 20.07. 20:00 0.0 l/m2 in 12 Std. -
Sa, 20.07. 14:00 0.0 l/m2 in 6 Std. -
Sa, 20.07. 8:00 0.0 l/m2 in 12 Std. -
Sa, 20.07. 2:00 0.0 l/m2 in 6 Std. -
Ortszeit Niederschlagsmenge Niederschlagsart
So, 21.07. 22:00 <0.05 l/m2 in 1 Std. Regen
So, 21.07. 21:50 keine Meldung -
So, 21.07. 21:40 keine Meldung -
So, 21.07. 21:30 0.0 l/m2 in 30 Min -
So, 21.07. 21:20 keine Meldung -
So, 21.07. 21:10 keine Meldung -
So, 21.07. 21:00 0.0 l/m2 in 1 Std. -
So, 21.07. 20:30 0.0 l/m2 in 30 Min -
So, 21.07. 20:00 0.0 l/m2 in 1 Std. Regen
So, 21.07. 19:30 0.0 l/m2 in 30 Min -
So, 21.07. 19:00 0.0 l/m2 in 1 Std. -
Ortszeit Stärke Spitze Richtung
km/h Bft. km/h Grad Sektor
So, 21.07. 20:00 31 5 76 280° W
So, 21.07. 14:00 11 2 29 50° NO
So, 21.07. 8:00 14 3 25 200° S
So, 21.07. 2:00 20 4 33 180° S
Sa, 20.07. 20:00 15 3 31 130° SO
Sa, 20.07. 14:00 14 3 36 130° SO
Sa, 20.07. 8:00 22 4 29 110° O
Sa, 20.07. 2:00 24 4 28 130° SO
Ortszeit Stärke Spitze Richtung
km/h Bft. km/h Grad Sektor
So, 21.07. 22:00 25 4 29 270° W
So, 21.07. 21:50 25 4 - 270° W
So, 21.07. 21:40 25 4 - 270° W
So, 21.07. 21:30 24 4 26 270° W
So, 21.07. 21:20 24 4 - 270° W
So, 21.07. 21:10 24 4 - 270° W
So, 21.07. 21:00 22 4 36 280° W
So, 21.07. 20:30 25 4 36 280° W
So, 21.07. 20:00 31 5 37 280° W
So, 21.07. 19:30 30 5 37 280° W
So, 21.07. 19:00 26 4 31 260° W
Ortszeit Untergrenze Bedeckung Gattung
total tief tief mittel hoch
So, 21.07. 20:00 2700 m 8/8 7/8 - - -
So, 21.07. 14:00 990 m 8/8 8/8 - - -
So, 21.07. 8:00 9000 m 1/8 0/8 - - -
So, 21.07. 2:00 - 0/8 0/8 - - -
Sa, 20.07. 20:00 - 0/8 0/8 - - -
Sa, 20.07. 14:00 990 m 6/8 5/8 - - -
Sa, 20.07. 8:00 990 m 8/8 1/8 - - -
Sa, 20.07. 2:00 1170 m 3/8 3/8 - - -
Ortszeit Bedeckungsgrad in Achtel und Wolkenuntergrenze
So, 21.07. 22:00 7(2700m)
So, 21.07. 21:50 7(2700m)
So, 21.07. 21:40 8
So, 21.07. 21:30 8(3000m)
So, 21.07. 21:20 8(3000m)
So, 21.07. 21:10 8
So, 21.07. 21:00 8(3000m)
So, 21.07. 20:30 8(2700m)
So, 21.07. 20:00 7(2700m) 8(3600m)
So, 21.07. 19:30 2(2400m) 8(7500m) 8(8100m)
So, 21.07. 19:00 3(3000m) 7(6900m) 7(7500m)
Ortszeit Stationsdruck (hPa) Tendenz (hPa in 3 Std.)
So, 21.07. 20:00 882 - 0,2
So, 21.07. 14:00 882 - 0,2
So, 21.07. 8:00 882 + 0,2
So, 21.07. 2:00 883 - 0,6
Sa, 20.07. 20:00 884 - 0,8
Sa, 20.07. 14:00 886 - 0,6
Sa, 20.07. 8:00 887 - 0,9
Sa, 20.07. 2:00 889 - 0,9
Ortszeit Stationsdruck (hPa) Tendenz (hPa in 3 Std.)
So, 21.07. 22:00 883 + 0,5
So, 21.07. 21:50 883 keine Meldung
So, 21.07. 21:40 883 keine Meldung
So, 21.07. 21:30 883 + 0,6
So, 21.07. 21:20 883 keine Meldung
So, 21.07. 21:10 883 keine Meldung
So, 21.07. 21:00 883 + 0,4
So, 21.07. 20:30 883 0,0
So, 21.07. 20:00 882 - 0,2
So, 21.07. 19:30 882 0,0
So, 21.07. 19:00 883 - 0,3
Ortszeit Schneehöhe (cm)
So, 21.07. 20:00 0
So, 21.07. 14:00 0
So, 21.07. 8:00 0
So, 21.07. 2:00 0
Sa, 20.07. 20:00 0
Sa, 20.07. 14:00 0
Sa, 20.07. 8:00 0
Sa, 20.07. 2:00 0
Ortszeit Schneehöhe (cm)
So, 21.07. 22:00 0
So, 21.07. 21:50 0
So, 21.07. 21:40 -
So, 21.07. 21:30 0
So, 21.07. 21:20 0
So, 21.07. 21:10 -
So, 21.07. 21:00 0
So, 21.07. 20:30 0
So, 21.07. 20:00 0
So, 21.07. 19:30 0
So, 21.07. 19:00 0
Link zu dieser Seite / Seite empfehlen

Das Wetter in ...